Stations météo

réclame
Mon MeteoGroup
Horn, Suède (2557): Température de l'air & dewpoint: 15.08.2018 06:00:00 - 21.08.2018 06:00:00 (CEST)Horn, Suède (2557): Vitesse du vent & gusts: 15.08.2018 06:00:00 - 21.08.2018 06:00:00 (CEST)Horn, Suède (2557): Direction du vent: 15.08.2018 06:00:00 - 21.08.2018 06:00:00 (CEST)Horn, Suède (2557): visibility: 15.08.2018 06:00:00 - 21.08.2018 06:00:00 (CEST)Horn, Suède (2557): Quantités de précipitations: 15.08.2018 06:00:00 - 21.08.2018 06:00:00 (CEST)
Date & Time tt [°C] td [°C] ff [km/h] ff [knt] fx [km/h] fx [knt] dd vv [km] rr [mm]
21.08.2018 06:00:00 - - - - - - - - -
21.08.2018 05:00:00 6,0 3,8 0 0 6 4 N 0,8 0,0
21.08.2018 04:00:00 6,5 4,0 3 2 6 4 SE 6 0,0
21.08.2018 03:00:00 7,4 5,0 0 0 4 2 N 13 0,0
21.08.2018 02:00:00 8,0 5,5 0 0 4 2 N 16 0,0
21.08.2018 01:00:00 8,9 6,3 0 0 5 3 N 23 0,0
21.08.2018 00:00:00 9,2 6,1 0 0 15 8 N 32 0,0
20.08.2018 23:00:00 12,0 7,9 5 3 15 8 WNW 50 0,0
20.08.2018 22:00:00 12,0 7,1 4 2 22 12 WSW 49 0,0
20.08.2018 21:00:00 13,3 7,9 6 4 22 12 W 50 0,0
20.08.2018 20:00:00 15,3 10,5 4 2 23 12 W 43 0,0
20.08.2018 19:00:00 16,9 11,8 12 6 23 12 W 42 0,0
20.08.2018 18:00:00 17,3 12,8 12 6 21 11 WNW 33 0,0
20.08.2018 17:00:00 16,8 13,3 9 5 29 16 W 37 0,0
20.08.2018 16:00:00 17,4 14,1 10 6 29 16 WNW 44 0,7
20.08.2018 15:00:00 17,9 14,4 8 4 24 13 NW 49 0,2
20.08.2018 14:00:00 17,4 14,3 9 5 24 13 N 20 0,0
20.08.2018 13:00:00 17,7 14,4 13 7 28 15 NW 41 0,0
20.08.2018 12:00:00 16,9 14,4 13 7 28 15 NW 18 0,0
20.08.2018 11:00:00 18,2 15,3 9 5 13 7 W 50 0,0
20.08.2018 10:00:00 17,4 15,2 6 3 9 5 SW 13 0,5
20.08.2018 09:00:00 16,5 14,3 4 2 9 5 S 4,5 1,4
20.08.2018 08:00:00 16,1 13,8 3 1 10 6 SE 3,8 1,0
20.08.2018 07:00:00 15,9 13,9 5 3 10 6 SSE 4,8 1,1
20.08.2018 06:00:00 16,0 14,0 6 3 10 6 SSE 12 0,2
20.08.2018 05:00:00 15,8 13,6 5 3 6 4 SSE 28 0,3
20.08.2018 04:00:00 15,6 13,3 3 2 5 3 S 16 0,8
20.08.2018 03:00:00 15,8 13,6 0 0 5 3 N 3,9 1,3
20.08.2018 02:00:00 15,8 13,5 2 1 11 6 NNW 3,6 3,7
20.08.2018 01:00:00 15,9 13,6 3 2 13 7 SE 4,0 3,0
20.08.2018 00:00:00 16,0 14,0 7 4 13 7 S 15 0,7
19.08.2018 23:00:00 16,2 14,2 9 5 12 6 S 28 0,3
19.08.2018 22:00:00 16,2 14,0 6 3 8 5 S 26 0,3
19.08.2018 21:00:00 16,1 13,0 3 2 20 11 S 18 0,1
19.08.2018 20:00:00 16,7 13,4 4 2 27 15 SW 28 0,1
19.08.2018 19:00:00 18,0 12,9 16 8 29 16 WSW 40 0,0
19.08.2018 18:00:00 20,0 11,7 18 10 35 19 WSW 43 0,0
19.08.2018 17:00:00 20,5 10,2 10 5 35 19 W 37 0,0
19.08.2018 16:00:00 20,7 9,3 17 9 34 18 WSW 32 0,0
19.08.2018 15:00:00 20,8 9,4 19 10 34 18 WSW 40 0,0
19.08.2018 14:00:00 21,2 9,1 18 10 39 21 WSW 30 0,0
19.08.2018 13:00:00 20,4 8,7 18 10 39 21 W 37 0,0
19.08.2018 12:00:00 20,2 9,1 20 11 36 19 WSW 29 0,0
19.08.2018 11:00:00 18,7 9,2 16 9 40 22 WSW 27 0,0
19.08.2018 10:00:00 17,6 8,2 22 12 40 22 W 27 0,0
19.08.2018 09:00:00 17,0 9,4 17 9 32 17 WSW 34 0,0
19.08.2018 08:00:00 16,7 12,4 18 10 32 17 W 49 0,0
19.08.2018 07:00:00 17,2 12,1 15 8 29 16 WSW 49 0,0
19.08.2018 06:00:00 16,8 12,9 12 7 30 16 SW 50 0,0
19.08.2018 05:00:00 16,9 12,6 15 8 30 16 SW 50 0,0
19.08.2018 04:00:00 17,0 13,1 16 9 26 14 SW 26 0,0
19.08.2018 03:00:00 16,9 13,8 13 7 37 20 SSW 38 0,0
19.08.2018 02:00:00 17,4 13,5 17 9 37 20 SW 34 0,0
19.08.2018 01:00:00 17,3 13,2 17 9 32 17 SW 16 0,0
19.08.2018 00:00:00 17,5 12,4 16 8 25 13 SW 44 0,0
18.08.2018 23:00:00 16,9 12,0 11 6 29 16 SSW 44 0,0
18.08.2018 22:00:00 16,6 12,1 15 8 44 24 S 44 0,0
18.08.2018 21:00:00 17,1 12,2 18 10 44 24 SW 34 0,0
18.08.2018 20:00:00 18,2 10,6 16 9 29 16 SSW 50 0,0
18.08.2018 19:00:00 18,9 11,0 16 8 40 21 SSW 37 0,0
18.08.2018 18:00:00 18,7 10,5 17 9 40 21 SSW 37 0,0
18.08.2018 17:00:00 18,5 10,8 18 10 38 20 SW 46 0,0
18.08.2018 16:00:00 19,0 10,5 19 11 38 20 SSW 38 0,0
18.08.2018 15:00:00 20,6 9,8 18 10 35 19 WSW 42 0,0
18.08.2018 14:00:00 19,8 9,4 17 9 35 19 SSW 43 0,0
18.08.2018 13:00:00 19,5 8,5 23 12 35 19 SW 25 0,0
18.08.2018 12:00:00 17,7 9,8 16 9 31 17 WSW 39 0,0
18.08.2018 11:00:00 18,6 10,4 16 9 27 14 WSW 28 0,0
18.08.2018 10:00:00 18,0 11,1 13 7 20 11 SW 36 0,0
18.08.2018 09:00:00 16,8 12,5 6 3 11 6 S 28 0,0
18.08.2018 08:00:00 14,1 11,1 3 2 5 3 SSW 29 0,0
18.08.2018 07:00:00 9,2 6,3 0 0 2 1 N 15 0,0
18.08.2018 06:00:00 6,6 3,6 0 0 2 1 N 0,6 0,0
18.08.2018 05:00:00 5,7 2,3 0 0 2 1 N 0,5 0,0
18.08.2018 04:00:00 7,9 5,5 0 0 3 2 N 0,4 0,0
18.08.2018 03:00:00 7,7 4,8 0 0 3 2 N 0,6 0,0
18.08.2018 02:00:00 8,4 5,7 0 0 3 2 N 0,3 0,0
18.08.2018 01:00:00 10,0 7,2 0 0 5 3 N 0,3 0,0
18.08.2018 00:00:00 10,9 8,3 0 0 5 3 N 0,2 0,0
17.08.2018 23:00:00 11,9 10,0 4 2 11 6 SSE 3,3 0,0
17.08.2018 22:00:00 13,8 11,1 0 0 11 6 N 18 0,0
17.08.2018 21:00:00 15,2 12,3 6 3 25 14 W 30 0,0
17.08.2018 20:00:00 15,9 12,5 0 0 35 19 N 14 1,0
17.08.2018 19:00:00 18,6 11,2 21 12 35 19 WNW 50 0,0
17.08.2018 18:00:00 22,4 12,9 16 8 34 19 W 50 0,0
17.08.2018 17:00:00 25,0 13,9 21 11 34 19 W 48 0,0
17.08.2018 16:00:00 25,1 14,6 17 9 35 19 SW 34 0,0
17.08.2018 15:00:00 25,7 14,5 25 13 35 19 SW 31 0,0
17.08.2018 14:00:00 25,8 14,9 18 10 33 18 S 32 0,0
17.08.2018 13:00:00 24,8 14,9 16 9 45 24 S 40 0,0
17.08.2018 12:00:00 26,2 15,3 16 9 45 24 S 35 0,0
17.08.2018 11:00:00 24,9 16,1 14 7 24 13 S 25 0,0
17.08.2018 10:00:00 22,8 15,9 14 8 24 13 SSE 37 0,0
17.08.2018 09:00:00 20,1 15,5 10 6 20 11 S 30 0,0
17.08.2018 08:00:00 19,0 15,1 10 6 16 9 SSE 33 0,0
17.08.2018 07:00:00 17,9 14,6 7 4 15 8 S 31 0,0
17.08.2018 06:00:00 17,2 14,1 10 5 15 8 S 24 0,0
17.08.2018 05:00:00 16,8 13,5 8 4 18 10 S 21 0,0
17.08.2018 04:00:00 17,3 13,6 9 5 18 10 S 19 0,0
17.08.2018 03:00:00 17,2 13,1 8 5 21 12 S 29 0,0
17.08.2018 02:00:00 18,2 13,5 11 6 21 12 S 28 0,0
17.08.2018 01:00:00 17,3 13,0 10 5 18 10 S 25 0,0
17.08.2018 00:00:00 17,2 12,3 8 4 18 10 S 29 0,0
16.08.2018 23:00:00 17,8 12,7 9 5 16 8 SSE 35 0,0
16.08.2018 22:00:00 17,6 13,1 8 5 13 7 SSE 38 0,0
16.08.2018 21:00:00 19,3 13,9 8 4 20 11 SE 41 0,0
16.08.2018 20:00:00 20,1 14,0 7 4 21 11 SE 47 0,0
16.08.2018 19:00:00 22,3 14,4 13 7 22 12 SSE 43 0,0
16.08.2018 18:00:00 22,1 13,7 16 8 22 12 S 35 0,0
16.08.2018 17:00:00 22,9 14,7 8 5 24 13 S 37 0,0
16.08.2018 16:00:00 22,6 14,2 11 6 28 15 SSW 46 0,0
16.08.2018 15:00:00 23,0 14,0 16 9 28 15 SSW 34 0,0
16.08.2018 14:00:00 23,2 15,0 13 7 29 15 SSW 35 0,0
16.08.2018 13:00:00 22,2 15,1 11 6 32 17 SW 38 0,0
16.08.2018 12:00:00 22,1 14,7 17 9 32 17 SSW 36 0,0
16.08.2018 11:00:00 21,8 14,9 14 8 24 13 S 31 0,0
16.08.2018 10:00:00 20,4 14,5 10 6 21 12 SSW 35 0,0
16.08.2018 09:00:00 18,3 14,4 10 6 21 11 SSW 35 0,0
16.08.2018 08:00:00 15,9 12,8 0 0 4 2 N 33 0,0
16.08.2018 07:00:00 11,7 9,4 0 0 3 2 N 10 0,0
16.08.2018 06:00:00 8,7 5,8 0 0 3 2 N 0,5 0,0
16.08.2018 05:00:00 9,4 6,7 0 0 3 2 N 0,4 0,0
16.08.2018 04:00:00 10,0 7,6 0 0 5 3 N 0,4 0,0
16.08.2018 03:00:00 10,8 8,2 2 1 5 3 SSE 1,4 0,0
16.08.2018 02:00:00 11,1 8,5 0 0 4 2 N 0,6 0,0
16.08.2018 01:00:00 12,1 8,8 0 0 4 2 N 2,3 0,0
16.08.2018 00:00:00 13,3 10,1 0 0 4 2 N 12 0,0
15.08.2018 23:00:00 14,2 11,2 3 1 4 2 SE 24 0,0
15.08.2018 22:00:00 15,0 11,6 0 0 3 2 N 46 0,0
15.08.2018 21:00:00 15,0 11,0 0 0 9 5 N 50 0,0
15.08.2018 20:00:00 17,4 11,7 0 0 15 8 N 47 0,0
15.08.2018 19:00:00 20,9 11,2 3 2 21 11 NW 47 0,0
15.08.2018 18:00:00 21,2 10,1 6 4 27 14 WNW 47 0,0
15.08.2018 17:00:00 21,0 10,2 13 7 27 14 NW 35 0,0
15.08.2018 16:00:00 20,7 13,2 11 6 21 11 WNW 37 0,0
15.08.2018 15:00:00 19,8 13,9 8 4 16 9 NNW 37 0,0
15.08.2018 14:00:00 18,9 13,7 7 4 13 7 N 32 0,0
15.08.2018 13:00:00 18,2 13,5 4 2 13 7 W 47 0,0
15.08.2018 12:00:00 17,8 13,9 7 4 12 7 WSW 33 0,0
15.08.2018 11:00:00 16,5 13,0 6 4 11 6 N 48 0,0
15.08.2018 10:00:00 15,5 12,6 5 3 8 4 NW 36 0,0
15.08.2018 09:00:00 14,9 12,4 3 2 9 5 NW 25 0,0
15.08.2018 08:00:00 14,4 11,9 0 0 9 5 N 9 0,1
15.08.2018 07:00:00 14,2 11,9 3 1 8 5 WNW 11 0,5
15.08.2018 06:00:00 14,0 11,9 4 2 8 5 WNW 4,2 0,0

tt = Température de l'air
td = dewpoint
ff = Vitesse du vent
fx = gusts
dd = Direction du vent
vv = visibility
rr = Quantités de précipitations

stations d'obs. à proximité